Time,TemperatureF,DewpointF,PressureIn,WindDirection,WindDirectionDegrees,WindSpeedMPH,WindSpeedGustMPH,Humidity,HourlyPrecipIn,Conditions,Clouds,dailyrainin,SolarRadiationWatts/m^2,SoftwareType,DateUTC
2013-11-11 00:02:00,51.1,50.2,30.18,WNW,300,0.0,0.0,97,0.00,,,0.00,0.0,meteohub,2013-11-11 05:02:00,
2013-11-11 00:03:00,51.1,50.0,30.17,WNW,300,0.0,0.0,96,0.00,,,0.00,0.0,meteohub,2013-11-11 05:03:00,
2013-11-11 00:06:00,51.1,50.2,30.17,WNW,300,0.0,0.0,97,0.00,,,0.00,0.0,meteohub,2013-11-11 05:06:00,
2013-11-11 00:07:00,51.1,50.2,30.17,WNW,300,0.0,0.0,97,0.00,,,0.00,0.0,meteohub,2013-11-11 05:07:00,
2013-11-11 00:12:00,51.1,50.2,30.17,WNW,300,0.0,0.0,97,0.00,,,0.00,0.0,meteohub,2013-11-11 05:12:00,
2013-11-11 00:18:00,50.7,49.8,30.17,WNW,300,0.0,0.0,97,0.00,,,0.00,0.0,meteohub,2013-11-11 05:18:00,
2013-11-11 00:25:00,50.2,49.1,30.17,WNW,300,0.0,0.0,96,0.00,,,0.00,0.0,meteohub,2013-11-11 05:25:00,
2013-11-11 00:27:00,50.0,48.9,30.17,WNW,300,0.0,0.0,96,0.00,,,0.00,0.0,meteohub,2013-11-11 05:27:00,
2013-11-11 00:32:00,49.8,48.7,30.17,WNW,300,0.0,0.0,96,0.00,,,0.00,0.0,meteohub,2013-11-11 05:32:00,
2013-11-11 00:37:00,49.6,48.6,30.17,WNW,300,0.0,0.0,96,0.00,,,0.00,0.0,meteohub,2013-11-11 05:37:00,
2013-11-11 00:40:00,49.8,48.9,30.17,WNW,300,0.0,0.0,97,0.00,,,0.00,0.0,meteohub,2013-11-11 05:40:00,
2013-11-11 00:46:00,50.2,49.3,30.18,WNW,300,0.0,0.0,97,0.00,,,0.00,0.0,meteohub,2013-11-11 05:46:00,
2013-11-11 00:52:00,50.4,49.5,30.18,WNW,300,0.0,0.0,97,0.00,,,0.00,0.0,meteohub,2013-11-11 05:52:00,
2013-11-11 00:58:00,50.2,49.3,30.18,WNW,300,0.0,0.0,97,0.00,,,0.00,0.0,meteohub,2013-11-11 05:58:00,
2013-11-11 01:05:00,49.8,48.9,30.18,WNW,300,0.0,0.0,97,0.00,,,0.00,0.0,meteohub,2013-11-11 06:05:00,
2013-11-11 01:11:00,49.6,48.7,30.18,WNW,300,0.0,0.0,97,0.00,,,0.00,0.0,meteohub,2013-11-11 06:11:00,
2013-11-11 01:17:00,49.6,48.7,30.18,WNW,300,0.0,0.0,97,0.00,,,0.00,0.0,meteohub,2013-11-11 06:17:00,
2013-11-11 01:22:00,49.5,48.6,30.18,WNW,300,0.0,0.0,97,0.00,,,0.00,0.0,meteohub,2013-11-11 06:22:00,
2013-11-11 01:27:00,49.1,48.2,30.18,WNW,300,0.0,0.0,97,0.00,,,0.00,0.0,meteohub,2013-11-11 06:27:00,
2013-11-11 01:32:00,49.3,48.4,30.18,WNW,300,0.0,0.0,97,0.00,,,0.00,0.0,meteohub,2013-11-11 06:32:00,
2013-11-11 01:39:00,49.3,48.4,30.17,WNW,300,0.0,0.0,97,0.00,,,0.00,0.0,meteohub,2013-11-11 06:39:00,
2013-11-11 01:45:00,49.5,48.6,30.17,WNW,300,0.0,0.0,97,0.00,,,0.00,0.0,meteohub,2013-11-11 06:45:00,
2013-11-11 01:51:00,49.3,48.4,30.17,WNW,300,0.0,0.0,97,0.00,,,0.00,0.0,meteohub,2013-11-11 06:51:00,
2013-11-11 01:57:00,48.7,47.8,30.17,WNW,300,0.0,0.0,97,0.00,,,0.00,0.0,meteohub,2013-11-11 06:57:00,
2013-11-11 02:03:00,48.6,47.7,30.17,WNW,300,0.0,0.0,97,0.00,,,0.00,0.0,meteohub,2013-11-11 07:03:00,
2013-11-11 02:09:00,48.7,47.8,30.16,WNW,300,0.0,0.0,97,0.00,,,0.00,0.0,meteohub,2013-11-11 07:09:00,
2013-11-11 02:16:00,48.4,47.5,30.16,WNW,300,0.0,0.0,97,0.00,,,0.00,0.0,meteohub,2013-11-11 07:16:00,
2013-11-11 02:22:00,48.6,47.7,30.16,WNW,300,0.0,0.0,97,0.00,,,0.00,0.0,meteohub,2013-11-11 07:22:00,
2013-11-11 02:27:00,48.4,47.5,30.17,WNW,300,0.0,0.0,97,0.00,,,0.00,0.0,meteohub,2013-11-11 07:27:00,
2013-11-11 02:34:00,48.2,47.3,30.16,WNW,300,0.0,0.0,97,0.00,,,0.00,0.0,meteohub,2013-11-11 07:34:00,
2013-11-11 02:40:00,48.4,47.5,30.16,WNW,300,0.0,0.0,97,0.00,,,0.00,0.0,meteohub,2013-11-11 07:40:00,
2013-11-11 02:46:00,48.0,47.1,30.17,WNW,300,0.0,0.0,97,0.00,,,0.00,0.0,meteohub,2013-11-11 07:46:00,
2013-11-11 02:52:00,47.8,46.9,30.16,WNW,300,0.0,0.0,97,0.00,,,0.00,0.0,meteohub,2013-11-11 07:52:00,
2013-11-11 02:59:00,47.7,46.9,30.17,WNW,300,0.0,0.0,97,0.00,,,0.00,0.0,meteohub,2013-11-11 07:59:00,
2013-11-11 03:05:00,47.7,46.9,30.17,WNW,300,0.0,0.0,97,0.00,,,0.00,0.0,meteohub,2013-11-11 08:05:00,
2013-11-11 03:11:00,47.8,46.9,30.17,WNW,300,0.0,0.0,97,0.00,,,0.00,0.0,meteohub,2013-11-11 08:11:00,
2013-11-11 03:17:00,47.8,46.9,30.17,WNW,300,0.0,0.0,97,0.00,,,0.00,0.0,meteohub,2013-11-11 08:17:00,
2013-11-11 03:22:00,47.8,46.9,30.17,WNW,300,0.0,0.0,97,0.00,,,0.00,0.0,meteohub,2013-11-11 08:22:00,
2013-11-11 03:27:00,47.5,46.8,30.16,WNW,300,0.0,0.0,97,0.00,,,0.00,0.0,meteohub,2013-11-11 08:27:00,
2013-11-11 03:32:00,47.7,46.9,30.17,WNW,300,0.0,0.0,97,0.00,,,0.00,0.0,meteohub,2013-11-11 08:32:00,
2013-11-11 03:39:00,47.8,46.9,30.17,WNW,300,0.0,0.0,97,0.00,,,0.00,0.0,meteohub,2013-11-11 08:39:00,
2013-11-11 03:45:00,47.7,46.9,30.17,WNW,300,0.0,0.0,97,0.00,,,0.00,0.0,meteohub,2013-11-11 08:45:00,
2013-11-11 03:51:00,47.7,46.9,30.17,WNW,300,0.0,0.0,97,0.00,,,0.00,0.0,meteohub,2013-11-11 08:51:00,
2013-11-11 03:57:00,47.7,46.9,30.17,WNW,300,0.0,0.0,97,0.00,,,0.00,0.0,meteohub,2013-11-11 08:57:00,
2013-11-11 04:03:00,47.5,46.8,30.17,WNW,300,0.0,0.0,97,0.00,,,0.00,0.0,meteohub,2013-11-11 09:03:00,
2013-11-11 04:10:00,47.5,46.8,30.17,WNW,300,0.0,0.0,97,0.00,,,0.00,0.0,meteohub,2013-11-11 09:10:00,
2013-11-11 04:16:00,47.8,46.9,30.17,WNW,300,0.0,0.0,97,0.00,,,0.00,0.0,meteohub,2013-11-11 09:16:00,
2013-11-11 04:22:00,48.0,47.1,30.17,WNW,300,0.0,0.0,97,0.00,,,0.00,0.0,meteohub,2013-11-11 09:22:00,
2013-11-11 04:27:00,48.6,47.7,30.17,WNW,300,0.0,0.0,97,0.00,,,0.00,0.0,meteohub,2013-11-11 09:27:00,
2013-11-11 04:32:00,48.9,48.0,30.18,WNW,300,0.0,0.0,97,0.00,,,0.00,0.0,meteohub,2013-11-11 09:32:00,
2013-11-11 04:37:00,48.7,47.8,30.17,WNW,300,0.0,0.0,97,0.00,,,0.00,0.0,meteohub,2013-11-11 09:37:00,
2013-11-11 04:42:00,48.9,48.0,30.17,WNW,300,0.0,0.0,97,0.00,,,0.00,0.0,meteohub,2013-11-11 09:42:00,
2013-11-11 04:47:00,49.1,48.2,30.17,WNW,300,0.0,0.0,97,0.00,,,0.00,0.0,meteohub,2013-11-11 09:47:00,
2013-11-11 04:52:00,49.1,48.2,30.17,WNW,300,0.0,0.0,97,0.00,,,0.00,0.0,meteohub,2013-11-11 09:52:00,
2013-11-11 04:57:00,49.3,48.4,30.17,WNW,300,0.0,0.0,97,0.00,,,0.00,0.0,meteohub,2013-11-11 09:57:00,
2013-11-11 05:02:00,49.3,48.4,30.17,WNW,300,0.0,0.0,97,0.00,,,0.00,0.0,meteohub,2013-11-11 10:02:00,
2013-11-11 05:07:00,49.3,48.4,30.17,WNW,300,0.0,0.0,97,0.00,,,0.00,0.0,meteohub,2013-11-11 10:07:00,
2013-11-11 05:12:00,49.1,48.2,30.17,WNW,300,0.0,0.0,97,0.00,,,0.00,0.0,meteohub,2013-11-11 10:12:00,
2013-11-11 05:17:00,48.9,48.0,30.17,WNW,300,0.0,0.0,97,0.00,,,0.00,0.0,meteohub,2013-11-11 10:17:00,
2013-11-11 05:24:00,48.7,47.8,30.17,WNW,300,0.0,0.0,97,0.00,,,0.00,0.0,meteohub,2013-11-11 10:24:00,
2013-11-11 05:30:00,48.6,47.7,30.18,WNW,300,0.0,0.0,97,0.00,,,0.00,0.0,meteohub,2013-11-11 10:30:00,
2013-11-11 05:36:00,48.6,47.7,30.17,WNW,300,0.0,0.0,97,0.00,,,0.00,0.0,meteohub,2013-11-11 10:36:00,
2013-11-11 05:42:00,48.6,47.7,30.18,WNW,300,0.0,0.0,97,0.00,,,0.00,0.0,meteohub,2013-11-11 10:42:00,
2013-11-11 05:47:00,48.4,47.5,30.17,WNW,300,0.0,0.0,97,0.00,,,0.00,0.0,meteohub,2013-11-11 10:47:00,
2013-11-11 05:52:00,48.4,47.5,30.17,WNW,300,0.0,0.0,97,0.00,,,0.00,0.0,meteohub,2013-11-11 10:52:00,
2013-11-11 05:57:00,48.0,47.1,30.18,WNW,300,0.0,0.0,97,0.00,,,0.00,0.0,meteohub,2013-11-11 10:57:00,
2013-11-11 06:02:00,47.8,46.9,30.17,WNW,300,0.0,0.0,97,0.00,,,0.00,0.0,meteohub,2013-11-11 11:02:00,
2013-11-11 06:07:00,47.7,46.9,30.18,WNW,300,0.0,0.0,97,0.00,,,0.00,0.0,meteohub,2013-11-11 11:07:00,
2013-11-11 06:12:00,47.7,46.9,30.18,WNW,300,0.0,0.0,97,0.00,,,0.00,0.0,meteohub,2013-11-11 11:12:00,
2013-11-11 06:17:00,47.7,46.9,30.18,WNW,300,0.0,0.0,97,0.00,,,0.00,0.0,meteohub,2013-11-11 11:17:00,
2013-11-11 06:22:00,47.5,46.8,30.18,WNW,300,0.0,0.0,97,0.00,,,0.00,0.0,meteohub,2013-11-11 11:22:00,
2013-11-11 06:27:00,47.5,46.8,30.18,WNW,300,0.0,0.0,97,0.00,,,0.00,0.0,meteohub,2013-11-11 11:27:00,
2013-11-11 06:32:00,47.7,46.9,30.18,WNW,300,0.0,0.0,97,0.00,,,0.00,0.0,meteohub,2013-11-11 11:32:00,
2013-11-11 06:37:00,47.3,46.6,30.18,WNW,300,0.0,0.0,97,0.00,,,0.00,0.0,meteohub,2013-11-11 11:37:00,
2013-11-11 06:42:00,46.9,46.2,30.18,WNW,300,0.0,0.0,97,0.00,,,0.00,0.0,meteohub,2013-11-11 11:42:00,
2013-11-11 06:47:00,46.8,46.0,30.19,WNW,300,0.0,0.0,97,0.00,,,0.00,0.0,meteohub,2013-11-11 11:47:00,
2013-11-11 06:52:00,46.8,46.0,30.19,WNW,300,0.0,0.0,97,0.00,,,0.00,0.0,meteohub,2013-11-11 11:52:00,
2013-11-11 06:57:00,46.8,46.0,30.19,WNW,300,0.0,0.0,97,0.00,,,0.00,0.0,meteohub,2013-11-11 11:57:00,
2013-11-11 07:02:00,46.9,46.2,30.19,WNW,300,0.0,0.0,97,0.00,,,0.00,5.0,meteohub,2013-11-11 12:02:00,
2013-11-11 07:07:00,46.9,46.2,30.19,WNW,300,0.0,0.0,97,0.00,,,0.00,9.0,meteohub,2013-11-11 12:07:00,
2013-11-11 07:12:00,46.6,45.9,30.19,WNW,300,0.0,0.0,97,0.00,,,0.00,11.0,meteohub,2013-11-11 12:12:00,
2013-11-11 07:17:00,46.2,45.5,30.20,WNW,300,0.0,0.0,97,0.00,,,0.00,12.0,meteohub,2013-11-11 12:17:00,
2013-11-11 07:22:00,46.0,45.3,30.20,WNW,300,0.0,0.0,97,0.00,,,0.00,14.0,meteohub,2013-11-11 12:22:00,
2013-11-11 07:27:00,46.2,45.5,30.20,WNW,300,0.0,0.0,97,0.00,,,0.00,16.0,meteohub,2013-11-11 12:27:00,
2013-11-11 07:32:00,46.6,45.9,30.20,WNW,300,0.0,0.0,97,0.00,,,0.00,18.0,meteohub,2013-11-11 12:32:00,
2013-11-11 07:37:00,46.9,46.2,30.20,WNW,300,0.0,0.0,97,0.00,,,0.00,21.0,meteohub,2013-11-11 12:37:00,
2013-11-11 07:42:00,47.7,46.9,30.20,WNW,300,0.0,0.0,97,0.00,,,0.00,21.0,meteohub,2013-11-11 12:42:00,
2013-11-11 07:49:00,48.6,47.7,30.20,WNW,300,0.0,0.0,97,0.00,,,0.00,23.0,meteohub,2013-11-11 12:49:00,
2013-11-11 07:55:00,49.3,48.7,30.20,WNW,300,0.0,0.0,98,0.00,,,0.00,25.0,meteohub,2013-11-11 12:55:00,
2013-11-11 08:01:00,49.6,48.7,30.20,WNW,300,0.0,0.0,97,0.00,,,0.00,26.0,meteohub,2013-11-11 13:01:00,
2013-11-11 08:07:00,50.2,49.3,30.20,WNW,300,0.0,0.0,97,0.00,,,0.00,28.0,meteohub,2013-11-11 13:07:00,
2013-11-11 08:12:00,50.9,50.4,30.21,North,355,0.0,2.0,98,0.00,,,0.00,32.0,meteohub,2013-11-11 13:12:00,
2013-11-11 08:17:00,51.6,50.7,30.21,North,355,0.0,2.0,97,0.00,,,0.00,35.0,meteohub,2013-11-11 13:17:00,
2013-11-11 08:22:00,52.3,50.9,30.21,North,355,0.0,2.0,95,0.00,,,0.00,32.0,meteohub,2013-11-11 13:22:00,
2013-11-11 08:27:00,53.4,51.4,30.22,NE,51,0.0,2.0,93,0.00,,,0.00,111.0,meteohub,2013-11-11 13:27:00,
2013-11-11 08:32:00,54.1,51.6,30.22,ENE,58,0.0,2.0,91,0.00,,,0.00,58.0,meteohub,2013-11-11 13:32:00,
2013-11-11 08:37:00,55.2,52.0,30.22,NNE,24,0.0,2.0,89,0.00,,,0.00,51.0,meteohub,2013-11-11 13:37:00,
2013-11-11 08:42:00,55.9,51.8,30.22,North,9,3.0,3.0,86,0.00,,,0.00,70.0,meteohub,2013-11-11 13:42:00,
2013-11-11 08:47:00,56.5,52.0,30.22,NNE,16,3.0,3.0,85,0.00,,,0.00,185.0,meteohub,2013-11-11 13:47:00,
2013-11-11 08:52:00,57.0,52.2,30.22,NE,47,1.0,4.0,84,0.00,,,0.00,109.0,meteohub,2013-11-11 13:52:00,
2013-11-11 08:57:00,57.7,52.7,30.22,ENE,71,1.0,4.0,83,0.00,,,0.00,229.0,meteohub,2013-11-11 13:57:00,
2013-11-11 09:02:00,58.5,52.7,30.22,NE,35,1.0,4.0,81,0.00,,,0.00,144.0,meteohub,2013-11-11 14:02:00,
2013-11-11 09:07:00,59.2,52.7,30.21,NNE,17,4.0,4.0,79,0.00,,,0.00,98.0,meteohub,2013-11-11 14:07:00,
2013-11-11 09:12:00,59.2,52.3,30.22,NNE,30,2.0,5.0,78,0.00,,,0.00,118.0,meteohub,2013-11-11 14:12:00,
2013-11-11 09:17:00,59.4,52.5,30.22,North,355,2.0,5.0,78,0.00,,,0.00,95.0,meteohub,2013-11-11 14:17:00,
2013-11-11 09:25:00,60.4,53.6,30.21,NE,37,0.0,5.0,78,0.00,,,0.00,132.0,meteohub,2013-11-11 14:25:00,
2013-11-11 09:31:00,61.2,53.2,30.22,ENE,75,3.0,4.0,75,0.00,,,0.00,158.0,meteohub,2013-11-11 14:31:00,
2013-11-11 09:37:00,61.5,53.2,30.22,SW,232,3.0,4.0,74,0.00,,,0.00,153.0,meteohub,2013-11-11 14:37:00,
2013-11-11 09:42:00,62.1,53.2,30.22,NE,49,2.0,4.0,73,0.00,,,0.00,209.0,meteohub,2013-11-11 14:42:00,
2013-11-11 09:47:00,62.8,52.9,30.22,NE,52,2.0,4.0,70,0.00,,,0.00,425.0,meteohub,2013-11-11 14:47:00,
2013-11-11 09:52:00,63.3,53.8,30.22,NNE,16,2.0,5.0,71,0.00,,,0.00,392.0,meteohub,2013-11-11 14:52:00,
2013-11-11 09:57:00,63.9,54.3,30.22,NNE,24,1.0,5.0,71,0.00,,,0.00,448.0,meteohub,2013-11-11 14:57:00,
2013-11-11 10:02:00,64.8,54.3,30.22,NNE,28,1.0,5.0,69,0.00,,,0.00,494.0,meteohub,2013-11-11 15:02:00,
2013-11-11 10:07:00,65.1,53.4,30.21,NE,38,1.0,5.0,66,0.00,,,0.00,526.0,meteohub,2013-11-11 15:07:00,
2013-11-11 10:12:00,66.4,54.7,30.22,NE,46,2.0,5.0,66,0.00,,,0.00,543.0,meteohub,2013-11-11 15:12:00,
2013-11-11 10:17:00,66.9,53.1,30.22,South,178,0.0,4.0,61,0.00,,,0.00,561.0,meteohub,2013-11-11 15:17:00,
2013-11-11 10:22:00,66.9,52.5,30.22,ENE,69,3.0,5.0,60,0.00,,,0.00,571.0,meteohub,2013-11-11 15:22:00,
2013-11-11 10:27:00,67.3,53.4,30.21,North,355,1.0,5.0,61,0.00,,,0.00,582.0,meteohub,2013-11-11 15:27:00,
2013-11-11 10:32:00,68.2,53.8,30.21,ENE,59,1.0,4.0,60,0.00,,,0.00,591.0,meteohub,2013-11-11 15:32:00,
2013-11-11 10:37:00,68.5,52.7,30.21,SSE,148,3.0,4.0,57,0.00,,,0.00,599.0,meteohub,2013-11-11 15:37:00,
2013-11-11 10:42:00,68.7,53.4,30.21,ENE,69,0.0,5.0,58,0.00,,,0.00,606.0,meteohub,2013-11-11 15:42:00,
2013-11-11 10:48:00,69.4,54.5,30.21,ESE,113,3.0,5.0,59,0.00,,,0.00,617.0,meteohub,2013-11-11 15:48:00,
2013-11-11 10:55:00,69.8,54.3,30.21,NNE,30,3.0,5.0,58,0.00,,,0.00,624.0,meteohub,2013-11-11 15:55:00,
2013-11-11 11:01:00,68.9,54.9,30.21,NE,42,2.0,6.0,61,0.00,,,0.00,635.0,meteohub,2013-11-11 16:01:00,
2013-11-11 11:07:00,70.2,55.6,30.21,North,5,2.0,6.0,60,0.00,,,0.00,642.0,meteohub,2013-11-11 16:07:00,
2013-11-11 11:12:00,70.5,56.5,30.21,SSE,167,2.0,6.0,61,0.00,,,0.00,645.0,meteohub,2013-11-11 16:12:00,
2013-11-11 11:19:00,71.1,56.5,30.21,East,83,0.0,7.0,60,0.00,,,0.00,652.0,meteohub,2013-11-11 16:19:00,
2013-11-11 11:26:00,71.4,56.8,30.21,East,86,2.0,7.0,60,0.00,,,0.00,659.0,meteohub,2013-11-11 16:26:00,
2013-11-11 11:32:00,71.6,57.4,30.20,SSE,163,5.0,5.0,61,0.00,,,0.00,663.0,meteohub,2013-11-11 16:32:00,
2013-11-11 11:37:00,72.0,56.3,30.20,West,280,1.0,5.0,58,0.00,,,0.00,664.0,meteohub,2013-11-11 16:37:00,
2013-11-11 11:42:00,72.0,57.4,30.19,SW,232,1.0,5.0,60,0.00,,,0.00,668.0,meteohub,2013-11-11 16:42:00,
2013-11-11 11:47:00,72.1,58.5,30.19,NNE,26,2.0,5.0,62,0.00,,,0.00,670.0,meteohub,2013-11-11 16:47:00,
2013-11-11 11:52:00,72.1,57.9,30.19,North,10,3.0,10.0,61,0.00,,,0.00,670.0,meteohub,2013-11-11 16:52:00,
2013-11-11 11:57:00,72.0,57.4,30.19,NNE,30,4.0,10.0,60,0.00,,,0.00,671.0,meteohub,2013-11-11 16:57:00,
2013-11-11 12:02:00,72.1,57.6,30.18,ENE,63,3.0,10.0,60,0.00,,,0.00,673.0,meteohub,2013-11-11 17:02:00,
2013-11-11 12:07:00,73.0,57.9,30.18,SW,228,1.0,6.0,59,0.00,,,0.00,677.0,meteohub,2013-11-11 17:07:00,
2013-11-11 12:12:00,73.2,58.5,30.18,East,92,2.0,6.0,60,0.00,,,0.00,677.0,meteohub,2013-11-11 17:12:00,
2013-11-11 12:17:00,73.6,57.4,30.18,ESE,103,0.0,6.0,57,0.00,,,0.00,675.0,meteohub,2013-11-11 17:17:00,
2013-11-11 12:22:00,73.0,58.3,30.18,ENE,72,1.0,6.0,60,0.00,,,0.00,675.0,meteohub,2013-11-11 17:22:00,
2013-11-11 12:27:00,73.8,58.5,30.17,SE,132,3.0,6.0,59,0.00,,,0.00,671.0,meteohub,2013-11-11 17:27:00,
2013-11-11 12:34:00,74.1,58.8,30.17,NE,51,2.0,6.0,59,0.00,,,0.00,671.0,meteohub,2013-11-11 17:34:00,
2013-11-11 12:40:00,73.8,58.5,30.17,NE,34,3.0,6.0,59,0.00,,,0.00,668.0,meteohub,2013-11-11 17:40:00,
2013-11-11 12:46:00,73.8,57.6,30.16,NE,56,2.0,9.0,57,0.00,,,0.00,663.0,meteohub,2013-11-11 17:46:00,
2013-11-11 12:52:00,74.7,59.4,30.16,ENE,74,0.0,9.0,59,0.00,,,0.00,661.0,meteohub,2013-11-11 17:52:00,
2013-11-11 12:58:00,74.7,58.8,30.16,North,9,2.0,9.0,58,0.00,,,0.00,654.0,meteohub,2013-11-11 17:58:00,
2013-11-11 13:04:00,74.8,58.6,30.16,NE,37,2.0,5.0,57,0.00,,,0.00,649.0,meteohub,2013-11-11 18:04:00,
2013-11-11 13:11:00,74.7,58.8,30.15,North,0,2.0,5.0,58,0.00,,,0.00,645.0,meteohub,2013-11-11 18:11:00,
2013-11-11 13:17:00,75.0,59.2,30.15,ENE,74,2.0,5.0,58,0.00,,,0.00,587.0,meteohub,2013-11-11 18:17:00,
2013-11-11 13:22:00,74.8,58.1,30.15,SSE,153,2.0,5.0,56,0.00,,,0.00,548.0,meteohub,2013-11-11 18:22:00,
2013-11-11 13:27:00,75.0,58.8,30.15,SSW,204,1.0,6.0,57,0.00,,,0.00,585.0,meteohub,2013-11-11 18:27:00,
2013-11-11 13:32:00,75.0,57.7,30.14,NNW,333,3.0,6.0,55,0.00,,,0.00,592.0,meteohub,2013-11-11 18:32:00,
2013-11-11 13:37:00,74.8,58.6,30.14,North,355,2.0,6.0,57,0.00,,,0.00,615.0,meteohub,2013-11-11 18:37:00,
2013-11-11 13:42:00,75.4,57.6,30.14,South,169,1.0,6.0,54,0.00,,,0.00,582.0,meteohub,2013-11-11 18:42:00,
2013-11-11 13:47:00,75.6,58.8,30.14,SE,129,2.0,6.0,56,0.00,,,0.00,591.0,meteohub,2013-11-11 18:47:00,
2013-11-11 13:52:00,75.6,58.3,30.14,SE,135,3.0,6.0,55,0.00,,,0.00,589.0,meteohub,2013-11-11 18:52:00,
2013-11-11 13:57:00,75.0,57.7,30.15,North,0,1.0,7.0,55,0.00,,,0.00,577.0,meteohub,2013-11-11 18:57:00,
2013-11-11 14:02:00,74.3,58.1,30.15,WNW,295,1.0,7.0,57,0.00,,,0.00,570.0,meteohub,2013-11-11 19:02:00,
2013-11-11 14:07:00,75.0,58.3,30.14,NE,47,2.0,7.0,56,0.00,,,0.00,561.0,meteohub,2013-11-11 19:07:00,
2013-11-11 14:12:00,75.0,57.7,30.14,NE,41,3.0,7.0,55,0.00,,,0.00,545.0,meteohub,2013-11-11 19:12:00,
2013-11-11 14:17:00,75.0,58.3,30.14,SSE,161,1.0,6.0,56,0.00,,,0.00,541.0,meteohub,2013-11-11 19:17:00,
2013-11-11 14:22:00,75.6,58.8,30.14,ESE,113,1.0,6.0,56,0.00,,,0.00,529.0,meteohub,2013-11-11 19:22:00,
2013-11-11 14:27:00,74.8,57.6,30.14,SSW,200,1.0,6.0,55,0.00,,,0.00,517.0,meteohub,2013-11-11 19:27:00,
2013-11-11 14:32:00,75.0,58.3,30.13,NE,54,2.0,6.0,56,0.00,,,0.00,506.0,meteohub,2013-11-11 19:32:00,
2013-11-11 14:37:00,75.4,58.6,30.13,NE,39,1.0,4.0,56,0.00,,,0.00,496.0,meteohub,2013-11-11 19:37:00,
2013-11-11 14:42:00,75.0,58.3,30.13,SE,126,3.0,4.0,56,0.00,,,0.00,483.0,meteohub,2013-11-11 19:42:00,
2013-11-11 14:47:00,75.2,58.5,30.13,ENE,63,1.0,5.0,56,0.00,,,0.00,469.0,meteohub,2013-11-11 19:47:00,
2013-11-11 14:52:00,75.4,59.0,30.13,ENE,78,0.0,5.0,57,0.00,,,0.00,455.0,meteohub,2013-11-11 19:52:00,
2013-11-11 14:57:00,75.0,59.2,30.13,NE,51,2.0,6.0,58,0.00,,,0.00,446.0,meteohub,2013-11-11 19:57:00,
2013-11-11 15:02:00,75.6,59.7,30.13,ENE,74,2.0,6.0,58,0.00,,,0.00,422.0,meteohub,2013-11-11 20:02:00,
2013-11-11 15:07:00,74.8,59.0,30.13,NNW,329,1.0,5.0,58,0.00,,,0.00,417.0,meteohub,2013-11-11 20:07:00,
2013-11-11 15:12:00,75.2,60.4,30.13,West,266,1.0,5.0,60,0.00,,,0.00,404.0,meteohub,2013-11-11 20:12:00,
2013-11-11 15:17:00,74.7,59.4,30.13,NE,48,1.0,4.0,59,0.00,,,0.00,374.0,meteohub,2013-11-11 20:17:00,
2013-11-11 15:22:00,75.0,60.3,30.13,NE,51,2.0,4.0,60,0.00,,,0.00,373.0,meteohub,2013-11-11 20:22:00,
2013-11-11 15:27:00,75.4,60.1,30.13,SSE,160,2.0,4.0,59,0.00,,,0.00,371.0,meteohub,2013-11-11 20:27:00,
2013-11-11 15:32:00,74.8,60.1,30.13,ESE,120,0.0,4.0,60,0.00,,,0.00,357.0,meteohub,2013-11-11 20:32:00,
2013-11-11 15:37:00,74.8,60.4,30.13,SSW,202,2.0,4.0,61,0.00,,,0.00,311.0,meteohub,2013-11-11 20:37:00,
2013-11-11 15:42:00,74.1,61.5,30.13,NE,39,4.0,4.0,65,0.00,,,0.00,360.0,meteohub,2013-11-11 20:42:00,
2013-11-11 15:47:00,73.4,61.3,30.13,NE,46,4.0,5.0,66,0.00,,,0.00,295.0,meteohub,2013-11-11 20:47:00,
2013-11-11 15:54:00,72.7,61.5,30.13,ENE,67,4.0,7.0,68,0.00,,,0.00,239.0,meteohub,2013-11-11 20:54:00,
2013-11-11 16:00:00,71.2,61.3,30.13,ENE,61,1.0,7.0,71,0.00,,,0.00,56.0,meteohub,2013-11-11 21:00:00,
2013-11-11 16:06:00,70.3,60.8,30.14,NE,46,0.0,6.0,72,0.00,,,0.00,181.0,meteohub,2013-11-11 21:06:00,
2013-11-11 16:12:00,70.9,61.3,30.14,NE,42,1.0,6.0,72,0.00,,,0.00,118.0,meteohub,2013-11-11 21:12:00,
2013-11-11 16:17:00,70.9,61.0,30.13,NNE,30,1.0,5.0,71,0.00,,,0.00,54.0,meteohub,2013-11-11 21:17:00,
2013-11-11 16:22:00,70.5,61.0,30.13,ESE,103,2.0,5.0,72,0.00,,,0.00,69.0,meteohub,2013-11-11 21:22:00,
2013-11-11 16:27:00,70.5,61.0,30.14,South,189,1.0,4.0,72,0.00,,,0.00,56.0,meteohub,2013-11-11 21:27:00,
2013-11-11 16:32:00,70.3,61.3,30.14,SE,134,1.0,4.0,73,0.00,,,0.00,46.0,meteohub,2013-11-11 21:32:00,
2013-11-11 16:37:00,69.8,61.5,30.14,ENE,71,2.0,4.0,75,0.00,,,0.00,35.0,meteohub,2013-11-11 21:37:00,
2013-11-11 16:42:00,69.4,61.2,30.14,North,355,0.0,4.0,75,0.00,,,0.00,33.0,meteohub,2013-11-11 21:42:00,
2013-11-11 16:47:00,68.9,61.0,30.14,ENE,65,3.0,4.0,76,0.00,,,0.00,26.0,meteohub,2013-11-11 21:47:00,
2013-11-11 16:52:00,68.5,61.0,30.14,NNE,28,0.0,4.0,77,0.00,,,0.00,26.0,meteohub,2013-11-11 21:52:00,
2013-11-11 16:57:00,68.2,61.0,30.14,NE,34,0.0,5.0,78,0.00,,,0.00,26.0,meteohub,2013-11-11 21:57:00,
2013-11-11 17:02:00,67.6,61.0,30.14,SW,233,1.0,5.0,79,0.00,,,0.00,25.0,meteohub,2013-11-11 22:02:00,
2013-11-11 17:08:00,67.3,61.0,30.14,ENE,63,0.0,5.0,80,0.00,,,0.00,25.0,meteohub,2013-11-11 22:08:00,
2013-11-11 17:14:00,66.9,61.0,30.14,ENE,74,0.0,3.0,81,0.00,,,0.00,19.0,meteohub,2013-11-11 22:14:00,
2013-11-11 17:20:00,66.4,60.8,30.14,NE,44,1.0,3.0,82,0.00,,,0.00,12.0,meteohub,2013-11-11 22:20:00,
2013-11-11 17:26:00,66.0,60.4,30.14,ENE,71,2.0,3.0,82,0.00,,,0.00,7.0,meteohub,2013-11-11 22:26:00,
2013-11-11 17:32:00,65.7,60.4,30.14,SE,140,0.0,3.0,83,0.00,,,0.00,0.0,meteohub,2013-11-11 22:32:00,
2013-11-11 17:37:00,65.1,60.1,30.14,SE,142,1.0,4.0,84,0.00,,,0.00,0.0,meteohub,2013-11-11 22:37:00,
2013-11-11 17:42:00,64.8,60.1,30.14,ENE,67,0.0,4.0,85,0.00,,,0.00,0.0,meteohub,2013-11-11 22:42:00,
2013-11-11 17:47:00,64.6,59.9,30.15,ENE,58,0.0,3.0,85,0.00,,,0.00,0.0,meteohub,2013-11-11 22:47:00,
2013-11-11 17:52:00,64.2,59.5,30.15,ENE,71,0.0,3.0,85,0.00,,,0.00,0.0,meteohub,2013-11-11 22:52:00,
2013-11-11 17:57:00,64.2,59.9,30.15,NE,50,0.0,2.0,86,0.00,,,0.00,0.0,meteohub,2013-11-11 22:57:00,
2013-11-11 18:02:00,64.2,59.9,30.15,NNE,32,2.0,2.0,86,0.00,,,0.00,0.0,meteohub,2013-11-11 23:02:00,
2013-11-11 18:07:00,64.0,59.7,30.15,NE,56,0.0,3.0,86,0.00,,,0.00,0.0,meteohub,2013-11-11 23:07:00,
2013-11-11 18:12:00,63.9,59.5,30.15,ENE,63,2.0,3.0,86,0.00,,,0.00,0.0,meteohub,2013-11-11 23:12:00,
2013-11-11 18:17:00,63.7,59.4,30.15,NE,52,2.0,4.0,86,0.00,,,0.00,0.0,meteohub,2013-11-11 23:17:00,
2013-11-11 18:22:00,63.5,59.5,30.15,NE,34,2.0,4.0,87,0.00,,,0.00,0.0,meteohub,2013-11-11 23:22:00,
2013-11-11 18:27:00,63.3,59.4,30.15,NE,47,0.0,3.0,87,0.00,,,0.00,0.0,meteohub,2013-11-11 23:27:00,
2013-11-11 18:32:00,63.0,59.4,30.15,East,81,0.0,3.0,88,0.00,,,0.00,0.0,meteohub,2013-11-11 23:32:00,
2013-11-11 18:37:00,63.0,59.4,30.15,NE,49,0.0,3.0,88,0.00,,,0.00,0.0,meteohub,2013-11-11 23:37:00,
2013-11-11 18:42:00,62.8,59.2,30.15,NE,39,2.0,3.0,88,0.00,,,0.00,0.0,meteohub,2013-11-11 23:42:00,
2013-11-11 18:47:00,62.4,59.2,30.15,NE,40,1.0,3.0,89,0.00,,,0.00,0.0,meteohub,2013-11-11 23:47:00,
2013-11-11 18:52:00,62.2,59.0,30.16,NE,40,0.0,2.0,89,0.00,,,0.00,0.0,meteohub,2013-11-11 23:52:00,
2013-11-11 18:57:00,62.1,58.8,30.16,NE,40,0.0,2.0,89,0.00,,,0.00,0.0,meteohub,2013-11-11 23:57:00,
2013-11-11 19:02:00,61.9,58.6,30.16,ENE,76,0.0,2.0,89,0.00,,,0.00,0.0,meteohub,2013-11-12 00:02:00,
2013-11-11 19:07:00,61.7,58.5,30.15,ENE,76,0.0,4.0,89,0.00,,,0.00,0.0,meteohub,2013-11-12 00:07:00,
2013-11-11 19:12:00,61.5,58.6,30.16,ENE,68,1.0,4.0,90,0.00,,,0.00,0.0,meteohub,2013-11-12 00:12:00,
2013-11-11 19:17:00,61.3,58.5,30.16,NE,55,0.0,4.0,90,0.00,,,0.00,0.0,meteohub,2013-11-12 00:17:00,
2013-11-11 19:22:00,61.2,58.5,30.15,NE,55,0.0,4.0,91,0.00,,,0.00,0.0,meteohub,2013-11-12 00:22:00,
2013-11-11 19:27:00,60.8,58.1,30.15,NE,53,1.0,2.0,91,0.00,,,0.00,0.0,meteohub,2013-11-12 00:27:00,
2013-11-11 19:32:00,60.4,57.7,30.15,NE,53,0.0,2.0,91,0.00,,,0.00,0.0,meteohub,2013-11-12 00:32:00,
2013-11-11 19:37:00,60.3,57.6,30.16,NE,53,0.0,2.0,91,0.00,,,0.00,0.0,meteohub,2013-11-12 00:37:00,
2013-11-11 19:42:00,60.1,57.7,30.15,NE,53,0.0,2.0,92,0.00,,,0.00,0.0,meteohub,2013-11-12 00:42:00,
2013-11-11 19:47:00,60.1,57.7,30.16,NE,53,0.0,1.0,92,0.00,,,0.00,0.0,meteohub,2013-11-12 00:47:00,
2013-11-11 19:52:00,59.9,57.6,30.16,NE,53,0.0,1.0,92,0.00,,,0.00,0.0,meteohub,2013-11-12 00:52:00,
2013-11-11 19:57:00,59.7,57.4,30.16,NE,53,0.0,0.0,92,0.00,,,0.00,0.0,meteohub,2013-11-12 00:57:00,
2013-11-11 20:02:00,59.7,57.4,30.16,NE,53,1.0,0.0,92,0.00,,,0.00,0.0,meteohub,2013-11-12 01:02:00,
2013-11-11 20:07:00,59.5,57.2,30.16,NE,53,0.0,1.0,92,0.00,,,0.00,0.0,meteohub,2013-11-12 01:07:00,
2013-11-11 20:12:00,59.5,57.2,30.16,NE,53,0.0,1.0,92,0.00,,,0.00,0.0,meteohub,2013-11-12 01:12:00,
2013-11-11 20:17:00,59.4,57.0,30.16,NE,53,0.0,1.0,92,0.00,,,0.00,0.0,meteohub,2013-11-12 01:17:00,
2013-11-11 20:22:00,59.4,57.0,30.16,NE,53,0.0,1.0,92,0.00,,,0.00,0.0,meteohub,2013-11-12 01:22:00,
2013-11-11 20:27:00,59.2,56.8,30.16,NE,53,0.0,1.0,92,0.00,,,0.00,0.0,meteohub,2013-11-12 01:27:00,
2013-11-11 20:32:00,59.0,56.7,30.16,NE,53,0.0,1.0,92,0.00,,,0.00,0.0,meteohub,2013-11-12 01:32:00,
2013-11-11 20:37:00,58.8,56.5,30.15,NE,53,0.0,0.0,92,0.00,,,0.00,0.0,meteohub,2013-11-12 01:37:00,
2013-11-11 20:42:00,58.6,56.3,30.15,NE,53,0.0,0.0,92,0.00,,,0.00,0.0,meteohub,2013-11-12 01:42:00,
2013-11-11 20:47:00,58.5,56.1,30.15,NE,53,0.0,0.0,92,0.00,,,0.00,0.0,meteohub,2013-11-12 01:47:00,
2013-11-11 20:52:00,58.5,56.1,30.15,NE,53,0.0,0.0,92,0.00,,,0.00,0.0,meteohub,2013-11-12 01:52:00,
2013-11-11 20:57:00,58.3,55.9,30.16,NE,53,0.0,1.0,92,0.00,,,0.00,0.0,meteohub,2013-11-12 01:57:00,
2013-11-11 21:02:00,58.1,55.8,30.16,NE,53,0.0,1.0,92,0.00,,,0.00,0.0,meteohub,2013-11-12 02:02:00,
2013-11-11 21:07:00,57.9,55.6,30.16,NE,53,0.0,0.0,92,0.00,,,0.00,0.0,meteohub,2013-11-12 02:07:00,
2013-11-11 21:12:00,57.9,55.9,30.16,NE,53,0.0,0.0,93,0.00,,,0.00,0.0,meteohub,2013-11-12 02:12:00,
2013-11-11 21:17:00,57.7,55.8,30.16,NE,53,0.0,0.0,93,0.00,,,0.00,0.0,meteohub,2013-11-12 02:17:00,
2013-11-11 21:22:00,57.7,55.8,30.16,NE,53,0.0,0.0,93,0.00,,,0.00,0.0,meteohub,2013-11-12 02:22:00,
2013-11-11 21:27:00,57.6,55.6,30.16,NE,53,0.0,0.0,93,0.00,,,0.00,0.0,meteohub,2013-11-12 02:27:00,
2013-11-11 21:32:00,57.6,55.6,30.16,NE,53,0.0,0.0,93,0.00,,,0.00,0.0,meteohub,2013-11-12 02:32:00,
2013-11-11 21:39:00,57.6,55.8,30.15,NE,53,0.0,1.0,94,0.00,,,0.00,0.0,meteohub,2013-11-12 02:39:00,
2013-11-11 21:45:00,57.4,55.6,30.16,NE,53,0.0,1.0,94,0.00,,,0.00,0.0,meteohub,2013-11-12 02:45:00,
2013-11-11 21:51:00,57.4,55.6,30.16,NE,53,0.0,1.0,94,0.00,,,0.00,0.0,meteohub,2013-11-12 02:51:00,
2013-11-11 21:57:00,57.4,55.6,30.15,NE,53,0.0,0.0,94,0.00,,,0.00,0.0,meteohub,2013-11-12 02:57:00,
2013-11-11 22:02:00,57.4,55.6,30.16,NE,53,0.0,0.0,94,0.00,,,0.00,0.0,meteohub,2013-11-12 03:02:00,
2013-11-11 22:07:00,57.4,55.6,30.15,NE,53,0.0,0.0,94,0.00,,,0.00,0.0,meteohub,2013-11-12 03:07:00,
2013-11-11 22:12:00,57.4,55.6,30.15,NE,53,0.0,0.0,94,0.00,,,0.00,0.0,meteohub,2013-11-12 03:12:00,
2013-11-11 22:17:00,57.2,55.4,30.16,NE,53,0.0,0.0,94,0.00,,,0.00,0.0,meteohub,2013-11-12 03:17:00,
2013-11-11 22:22:00,57.2,55.4,30.15,NE,53,0.0,0.0,94,0.00,,,0.00,0.0,meteohub,2013-11-12 03:22:00,
2013-11-11 22:27:00,57.0,55.2,30.16,NE,53,0.0,0.0,94,0.00,,,0.00,0.0,meteohub,2013-11-12 03:27:00,
2013-11-11 22:32:00,57.0,55.2,30.15,NE,53,0.0,0.0,94,0.00,,,0.00,0.0,meteohub,2013-11-12 03:32:00,
2013-11-11 22:37:00,57.0,55.2,30.16,NE,53,0.0,0.0,94,0.00,,,0.00,0.0,meteohub,2013-11-12 03:37:00,
2013-11-11 22:42:00,57.0,55.2,30.15,NE,53,0.0,0.0,94,0.00,,,0.00,0.0,meteohub,2013-11-12 03:42:00,
2013-11-11 22:47:00,56.8,55.2,30.15,NE,53,0.0,0.0,94,0.00,,,0.00,0.0,meteohub,2013-11-12 03:47:00,
2013-11-11 22:52:00,56.8,55.2,30.15,NE,53,0.0,0.0,94,0.00,,,0.00,0.0,meteohub,2013-11-12 03:52:00,
2013-11-11 22:59:00,56.8,55.2,30.15,NE,53,0.0,0.0,94,0.00,,,0.00,0.0,meteohub,2013-11-12 03:59:00,
2013-11-11 23:05:00,56.7,55.0,30.15,NE,53,0.0,0.0,94,0.00,,,0.00,0.0,meteohub,2013-11-12 04:05:00,
2013-11-11 23:15:00,56.5,54.9,30.14,NE,53,0.0,0.0,94,0.00,,,0.00,0.0,meteohub,2013-11-12 04:15:00,
2013-11-11 23:21:00,56.5,54.9,30.14,NE,53,0.0,0.0,94,0.00,,,0.00,0.0,meteohub,2013-11-12 04:21:00,
2013-11-11 23:27:00,56.5,54.9,30.14,NE,53,0.0,0.0,94,0.00,,,0.00,0.0,meteohub,2013-11-12 04:27:00,
2013-11-11 23:32:00,56.3,54.9,30.14,NE,53,0.0,0.0,95,0.00,,,0.00,0.0,meteohub,2013-11-12 04:32:00,
2013-11-11 23:37:00,56.3,54.9,30.14,NE,53,0.0,1.0,95,0.00,,,0.00,0.0,meteohub,2013-11-12 04:37:00,
2013-11-11 23:42:00,56.3,54.9,30.14,NE,53,0.0,1.0,95,0.00,,,0.00,0.0,meteohub,2013-11-12 04:42:00,
2013-11-11 23:49:00,56.5,55.0,30.14,NE,53,0.0,0.0,95,0.00,,,0.00,0.0,meteohub,2013-11-12 04:49:00,
2013-11-11 23:55:00,56.7,55.6,30.14,NE,53,0.0,1.0,96,0.00,,,0.00,0.0,meteohub,2013-11-12 04:55:00,